sensor_id;sensor_type;location;lat;lon;timestamp;P1;durP1;ratioP1;P2;durP2;ratioP2
28988;SDS011;16089;59.952;10.818;2022-11-11T00:00:06;22.00;;;3.63;;
28988;SDS011;16089;59.952;10.818;2022-11-11T00:02:32;21.35;;;3.03;;
28988;SDS011;16089;59.952;10.818;2022-11-11T00:04:59;25.25;;;4.05;;
28988;SDS011;16089;59.952;10.818;2022-11-11T00:07:25;23.15;;;3.25;;
28988;SDS011;16089;59.952;10.818;2022-11-11T00:09:51;22.35;;;3.47;;
28988;SDS011;16089;59.952;10.818;2022-11-11T00:12:17;23.85;;;3.50;;
28988;SDS011;16089;59.952;10.818;2022-11-11T00:14:45;19.67;;;3.42;;
28988;SDS011;16089;59.952;10.818;2022-11-11T00:17:11;24.38;;;3.33;;
28988;SDS011;16089;59.952;10.818;2022-11-11T00:19:55;21.00;;;3.20;;
28988;SDS011;16089;59.952;10.818;2022-11-11T00:22:39;19.30;;;2.97;;
28988;SDS011;16089;59.952;10.818;2022-11-11T00:25:23;18.63;;;3.00;;
28988;SDS011;16089;59.952;10.818;2022-11-11T00:27:49;20.42;;;2.80;;
28988;SDS011;16089;59.952;10.818;2022-11-11T00:30:17;12.07;;;2.03;;
28988;SDS011;16089;59.952;10.818;2022-11-11T00:32:43;16.70;;;2.40;;
28988;SDS011;16089;59.952;10.818;2022-11-11T00:35:09;15.55;;;2.25;;
28988;SDS011;16089;59.952;10.818;2022-11-11T00:37:53;17.63;;;2.47;;
28988;SDS011;16089;59.952;10.818;2022-11-11T00:40:20;13.48;;;2.33;;
28988;SDS011;16089;59.952;10.818;2022-11-11T00:42:46;12.00;;;1.85;;
28988;SDS011;16089;59.952;10.818;2022-11-11T00:45:12;13.43;;;2.72;;
28988;SDS011;16089;59.952;10.818;2022-11-11T00:47:40;9.30;;;1.67;;
28988;SDS011;16089;59.952;10.818;2022-11-11T00:50:24;10.45;;;1.85;;
28988;SDS011;16089;59.952;10.818;2022-11-11T00:53:09;10.90;;;2.13;;
28988;SDS011;16089;59.952;10.818;2022-11-11T00:55:35;14.93;;;2.17;;
28988;SDS011;16089;59.952;10.818;2022-11-11T00:58:02;10.85;;;1.98;;
28988;SDS011;16089;59.952;10.818;2022-11-11T01:00:28;11.35;;;1.75;;
28988;SDS011;16089;59.952;10.818;2022-11-11T01:02:56;9.52;;;1.90;;
28988;SDS011;16089;59.952;10.818;2022-11-11T01:05:22;10.63;;;1.58;;
28988;SDS011;16089;59.952;10.818;2022-11-11T01:07:48;10.43;;;1.48;;
28988;SDS011;16089;59.952;10.818;2022-11-11T01:10:15;15.57;;;1.83;;
28988;SDS011;16089;59.952;10.818;2022-11-11T01:13:02;11.00;;;1.90;;
28988;SDS011;16089;59.952;10.818;2022-11-11T01:15:37;10.20;;;1.83;;
28988;SDS011;16089;59.952;10.818;2022-11-11T01:18:05;10.25;;;1.80;;
28988;SDS011;16089;59.952;10.818;2022-11-11T01:20:32;11.90;;;2.03;;
28988;SDS011;16089;59.952;10.818;2022-11-11T01:22:58;13.23;;;1.92;;
28988;SDS011;16089;59.952;10.818;2022-11-11T01:25:24;15.18;;;2.47;;
28988;SDS011;16089;59.952;10.818;2022-11-11T01:27:51;11.55;;;2.20;;
28988;SDS011;16089;59.952;10.818;2022-11-11T01:30:17;13.02;;;2.30;;
28988;SDS011;16089;59.952;10.818;2022-11-11T01:32:43;15.85;;;2.80;;
28988;SDS011;16089;59.952;10.818;2022-11-11T01:35:11;21.45;;;2.70;;
28988;SDS011;16089;59.952;10.818;2022-11-11T01:37:37;13.55;;;2.38;;
28988;SDS011;16089;59.952;10.818;2022-11-11T01:40:04;21.88;;;3.22;;
28988;SDS011;16089;59.952;10.818;2022-11-11T01:42:30;18.23;;;3.08;;
28988;SDS011;16089;59.952;10.818;2022-11-11T01:44:57;21.00;;;3.53;;
28988;SDS011;16089;59.952;10.818;2022-11-11T01:47:23;18.15;;;2.75;;
28988;SDS011;16089;59.952;10.818;2022-11-11T01:50:11;19.00;;;3.38;;
28988;SDS011;16089;59.952;10.818;2022-11-11T01:52:37;23.67;;;3.25;;
28988;SDS011;16089;59.952;10.818;2022-11-11T01:55:06;24.73;;;3.88;;
28988;SDS011;16089;59.952;10.818;2022-11-11T01:57:33;24.98;;;3.67;;
28988;SDS011;16089;59.952;10.818;2022-11-11T02:00:03;25.33;;;4.22;;
28988;SDS011;16089;59.952;10.818;2022-11-11T02:02:31;23.52;;;4.13;;
28988;SDS011;16089;59.952;10.818;2022-11-11T02:04:59;23.25;;;4.03;;
28988;SDS011;16089;59.952;10.818;2022-11-11T02:07:47;26.52;;;4.97;;
28988;SDS011;16089;59.952;10.818;2022-11-11T02:10:14;27.25;;;4.32;;
28988;SDS011;16089;59.952;10.818;2022-11-11T02:12:40;32.30;;;4.32;;
28988;SDS011;16089;59.952;10.818;2022-11-11T02:15:24;26.20;;;4.32;;
28988;SDS011;16089;59.952;10.818;2022-11-11T02:17:50;29.65;;;4.68;;
28988;SDS011;16089;59.952;10.818;2022-11-11T02:20:17;34.85;;;5.38;;
28988;SDS011;16089;59.952;10.818;2022-11-11T02:22:46;33.53;;;4.70;;
28988;SDS011;16089;59.952;10.818;2022-11-11T02:25:15;32.72;;;4.97;;
28988;SDS011;16089;59.952;10.818;2022-11-11T02:27:43;32.35;;;5.32;;
28988;SDS011;16089;59.952;10.818;2022-11-11T02:30:10;32.33;;;4.63;;
28988;SDS011;16089;59.952;10.818;2022-11-11T02:32:41;27.58;;;4.65;;
28988;SDS011;16089;59.952;10.818;2022-11-11T02:35:12;32.08;;;4.88;;
28988;SDS011;16089;59.952;10.818;2022-11-11T02:37:39;31.75;;;5.28;;
28988;SDS011;16089;59.952;10.818;2022-11-11T02:40:07;32.53;;;5.68;;
28988;SDS011;16089;59.952;10.818;2022-11-11T02:42:35;29.50;;;5.25;;
28988;SDS011;16089;59.952;10.818;2022-11-11T02:45:01;36.00;;;4.50;;
28988;SDS011;16089;59.952;10.818;2022-11-11T02:47:27;38.92;;;5.65;;
28988;SDS011;16089;59.952;10.818;2022-11-11T02:49:54;27.33;;;4.63;;
28988;SDS011;16089;59.952;10.818;2022-11-11T02:52:20;34.05;;;4.82;;
28988;SDS011;16089;59.952;10.818;2022-11-11T02:54:46;41.17;;;5.68;;
28988;SDS011;16089;59.952;10.818;2022-11-11T02:57:13;28.65;;;5.18;;
28988;SDS011;16089;59.952;10.818;2022-11-11T02:59:41;32.92;;;4.50;;
28988;SDS011;16089;59.952;10.818;2022-11-11T03:02:07;31.90;;;5.15;;
28988;SDS011;16089;59.952;10.818;2022-11-11T03:04:34;39.55;;;5.93;;
28988;SDS011;16089;59.952;10.818;2022-11-11T03:07:01;31.90;;;5.45;;
28988;SDS011;16089;59.952;10.818;2022-11-11T03:09:27;28.50;;;4.82;;
28988;SDS011;16089;59.952;10.818;2022-11-11T03:11:54;38.30;;;5.82;;
28988;SDS011;16089;59.952;10.818;2022-11-11T03:14:20;36.08;;;5.25;;
28988;SDS011;16089;59.952;10.818;2022-11-11T03:16:48;31.50;;;4.93;;
28988;SDS011;16089;59.952;10.818;2022-11-11T03:19:31;29.83;;;4.63;;
28988;SDS011;16089;59.952;10.818;2022-11-11T03:21:58;29.63;;;4.75;;
28988;SDS011;16089;59.952;10.818;2022-11-11T03:24:23;40.22;;;5.18;;
28988;SDS011;16089;59.952;10.818;2022-11-11T03:27:10;33.45;;;4.90;;
28988;SDS011;16089;59.952;10.818;2022-11-11T03:29:36;30.90;;;5.97;;
28988;SDS011;16089;59.952;10.818;2022-11-11T03:32:04;28.63;;;4.60;;
28988;SDS011;16089;59.952;10.818;2022-11-11T03:34:31;34.38;;;5.63;;
28988;SDS011;16089;59.952;10.818;2022-11-11T03:36:57;30.88;;;5.10;;
28988;SDS011;16089;59.952;10.818;2022-11-11T03:39:41;39.30;;;5.15;;
28988;SDS011;16089;59.952;10.818;2022-11-11T03:42:07;28.92;;;4.38;;
28988;SDS011;16089;59.952;10.818;2022-11-11T03:44:33;31.23;;;4.45;;
28988;SDS011;16089;59.952;10.818;2022-11-11T03:47:00;38.33;;;5.65;;
28988;SDS011;16089;59.952;10.818;2022-11-11T03:49:27;30.02;;;4.85;;
28988;SDS011;16089;59.952;10.818;2022-11-11T03:51:54;35.17;;;5.35;;
28988;SDS011;16089;59.952;10.818;2022-11-11T03:54:20;36.15;;;4.97;;
28988;SDS011;16089;59.952;10.818;2022-11-11T03:56:46;38.63;;;4.95;;
28988;SDS011;16089;59.952;10.818;2022-11-11T03:59:12;33.70;;;4.78;;
28988;SDS011;16089;59.952;10.818;2022-11-11T04:01:39;29.20;;;4.95;;
28988;SDS011;16089;59.952;10.818;2022-11-11T04:04:23;34.40;;;5.40;;
28988;SDS011;16089;59.952;10.818;2022-11-11T04:07:08;34.10;;;5.30;;
28988;SDS011;16089;59.952;10.818;2022-11-11T04:09:53;31.52;;;5.45;;
28988;SDS011;16089;59.952;10.818;2022-11-11T04:12:37;35.40;;;5.15;;
28988;SDS011;16089;59.952;10.818;2022-11-11T04:15:19;27.70;;;5.40;;
28988;SDS011;16089;59.952;10.818;2022-11-11T04:18:03;25.95;;;4.57;;
28988;SDS011;16089;59.952;10.818;2022-11-11T04:20:29;29.80;;;5.18;;
28988;SDS011;16089;59.952;10.818;2022-11-11T04:23:14;31.33;;;4.72;;
28988;SDS011;16089;59.952;10.818;2022-11-11T04:25:41;38.65;;;4.65;;
28988;SDS011;16089;59.952;10.818;2022-11-11T04:28:17;30.75;;;4.80;;
28988;SDS011;16089;59.952;10.818;2022-11-11T04:31:15;26.75;;;4.15;;
28988;SDS011;16089;59.952;10.818;2022-11-11T04:33:41;35.83;;;6.25;;
28988;SDS011;16089;59.952;10.818;2022-11-11T04:36:08;40.33;;;5.65;;
28988;SDS011;16089;59.952;10.818;2022-11-11T04:38:35;32.90;;;5.13;;
28988;SDS011;16089;59.952;10.818;2022-11-11T04:41:19;38.10;;;5.47;;
28988;SDS011;16089;59.952;10.818;2022-11-11T04:43:45;33.53;;;5.13;;
28988;SDS011;16089;59.952;10.818;2022-11-11T04:46:29;37.67;;;5.40;;
28988;SDS011;16089;59.952;10.818;2022-11-11T04:48:55;32.60;;;5.07;;
28988;SDS011;16089;59.952;10.818;2022-11-11T04:51:22;31.45;;;4.57;;
28988;SDS011;16089;59.952;10.818;2022-11-11T04:54:09;33.45;;;5.55;;
28988;SDS011;16089;59.952;10.818;2022-11-11T04:56:36;37.45;;;4.88;;
28988;SDS011;16089;59.952;10.818;2022-11-11T04:59:14;39.15;;;5.80;;
28988;SDS011;16089;59.952;10.818;2022-11-11T05:01:44;39.45;;;5.60;;
28988;SDS011;16089;59.952;10.818;2022-11-11T05:04:28;25.60;;;5.00;;
28988;SDS011;16089;59.952;10.818;2022-11-11T05:06:54;30.17;;;5.22;;
28988;SDS011;16089;59.952;10.818;2022-11-11T05:09:40;37.42;;;5.78;;
28988;SDS011;16089;59.952;10.818;2022-11-11T05:12:06;30.83;;;5.38;;
28988;SDS011;16089;59.952;10.818;2022-11-11T05:14:32;33.95;;;5.20;;
28988;SDS011;16089;59.952;10.818;2022-11-11T05:17:16;30.92;;;5.20;;
28988;SDS011;16089;59.952;10.818;2022-11-11T05:20:00;34.15;;;5.55;;
28988;SDS011;16089;59.952;10.818;2022-11-11T05:22:44;38.85;;;5.93;;
28988;SDS011;16089;59.952;10.818;2022-11-11T05:25:11;33.45;;;4.95;;
28988;SDS011;16089;59.952;10.818;2022-11-11T05:27:55;30.23;;;5.03;;
28988;SDS011;16089;59.952;10.818;2022-11-11T05:30:21;41.70;;;6.28;;
28988;SDS011;16089;59.952;10.818;2022-11-11T05:32:48;31.05;;;5.45;;
28988;SDS011;16089;59.952;10.818;2022-11-11T05:35:15;34.45;;;4.95;;
28988;SDS011;16089;59.952;10.818;2022-11-11T05:37:41;32.75;;;4.88;;
28988;SDS011;16089;59.952;10.818;2022-11-11T05:40:08;39.83;;;5.30;;
28988;SDS011;16089;59.952;10.818;2022-11-11T05:42:40;37.13;;;5.55;;
28988;SDS011;16089;59.952;10.818;2022-11-11T05:45:07;39.28;;;5.57;;
28988;SDS011;16089;59.952;10.818;2022-11-11T05:47:34;30.65;;;5.03;;
28988;SDS011;16089;59.952;10.818;2022-11-11T05:50:00;31.92;;;5.47;;
28988;SDS011;16089;59.952;10.818;2022-11-11T05:52:26;39.08;;;5.70;;
28988;SDS011;16089;59.952;10.818;2022-11-11T05:54:53;35.85;;;6.25;;
28988;SDS011;16089;59.952;10.818;2022-11-11T05:57:19;37.15;;;5.30;;
28988;SDS011;16089;59.952;10.818;2022-11-11T05:59:46;30.23;;;5.05;;
28988;SDS011;16089;59.952;10.818;2022-11-11T06:02:13;38.53;;;5.90;;
28988;SDS011;16089;59.952;10.818;2022-11-11T06:04:41;38.40;;;5.72;;
28988;SDS011;16089;59.952;10.818;2022-11-11T06:07:07;39.00;;;5.72;;
28988;SDS011;16089;59.952;10.818;2022-11-11T06:09:33;27.13;;;4.90;;
28988;SDS011;16089;59.952;10.818;2022-11-11T06:11:59;32.03;;;5.35;;
28988;SDS011;16089;59.952;10.818;2022-11-11T06:14:26;39.38;;;5.03;;
28988;SDS011;16089;59.952;10.818;2022-11-11T06:16:54;32.63;;;4.75;;
28988;SDS011;16089;59.952;10.818;2022-11-11T06:19:20;29.13;;;4.78;;
28988;SDS011;16089;59.952;10.818;2022-11-11T06:21:46;31.63;;;5.40;;
28988;SDS011;16089;59.952;10.818;2022-11-11T06:24:22;47.63;;;14.57;;
28988;SDS011;16089;59.952;10.818;2022-11-11T06:26:48;29.58;;;5.18;;
28988;SDS011;16089;59.952;10.818;2022-11-11T06:29:13;24.73;;;4.13;;
28988;SDS011;16089;59.952;10.818;2022-11-11T06:31:40;30.30;;;4.75;;
28988;SDS011;16089;59.952;10.818;2022-11-11T06:34:07;24.20;;;4.13;;
28988;SDS011;16089;59.952;10.818;2022-11-11T06:36:34;28.58;;;4.43;;
28988;SDS011;16089;59.952;10.818;2022-11-11T06:39:00;26.27;;;4.40;;
28988;SDS011;16089;59.952;10.818;2022-11-11T06:41:26;23.77;;;3.78;;
28988;SDS011;16089;59.952;10.818;2022-11-11T06:43:53;24.88;;;3.90;;
28988;SDS011;16089;59.952;10.818;2022-11-11T06:46:19;23.08;;;4.28;;
28988;SDS011;16089;59.952;10.818;2022-11-11T06:48:47;29.05;;;4.43;;
28988;SDS011;16089;59.952;10.818;2022-11-11T06:51:14;22.95;;;3.97;;
28988;SDS011;16089;59.952;10.818;2022-11-11T06:53:41;19.75;;;4.15;;
28988;SDS011;16089;59.952;10.818;2022-11-11T06:56:07;19.38;;;3.38;;
28988;SDS011;16089;59.952;10.818;2022-11-11T06:58:34;27.33;;;4.22;;
28988;SDS011;16089;59.952;10.818;2022-11-11T07:01:02;28.50;;;4.40;;
28988;SDS011;16089;59.952;10.818;2022-11-11T07:03:29;20.65;;;3.58;;
28988;SDS011;16089;59.952;10.818;2022-11-11T07:05:55;22.25;;;3.35;;
28988;SDS011;16089;59.952;10.818;2022-11-11T07:08:23;21.58;;;3.70;;
28988;SDS011;16089;59.952;10.818;2022-11-11T07:10:50;19.58;;;3.78;;
28988;SDS011;16089;59.952;10.818;2022-11-11T07:13:16;23.70;;;3.60;;
28988;SDS011;16089;59.952;10.818;2022-11-11T07:15:42;24.80;;;3.67;;
28988;SDS011;16089;59.952;10.818;2022-11-11T07:18:09;20.38;;;3.55;;
28988;SDS011;16089;59.952;10.818;2022-11-11T07:20:35;31.02;;;4.47;;
28988;SDS011;16089;59.952;10.818;2022-11-11T07:23:02;20.60;;;3.42;;
28988;SDS011;16089;59.952;10.818;2022-11-11T07:25:29;17.90;;;3.38;;
28988;SDS011;16089;59.952;10.818;2022-11-11T07:27:56;20.88;;;3.50;;
28988;SDS011;16089;59.952;10.818;2022-11-11T07:30:22;21.73;;;4.50;;
28988;SDS011;16089;59.952;10.818;2022-11-11T07:32:49;25.05;;;4.18;;
28988;SDS011;16089;59.952;10.818;2022-11-11T07:35:16;23.33;;;4.53;;
28988;SDS011;16089;59.952;10.818;2022-11-11T07:37:43;17.10;;;3.50;;
28988;SDS011;16089;59.952;10.818;2022-11-11T07:40:10;20.92;;;3.45;;
28988;SDS011;16089;59.952;10.818;2022-11-11T07:42:38;23.48;;;3.95;;
28988;SDS011;16089;59.952;10.818;2022-11-11T07:45:05;19.25;;;3.08;;
28988;SDS011;16089;59.952;10.818;2022-11-11T07:47:32;22.50;;;3.35;;
28988;SDS011;16089;59.952;10.818;2022-11-11T07:49:59;19.63;;;2.80;;
28988;SDS011;16089;59.952;10.818;2022-11-11T07:52:25;17.17;;;2.80;;
28988;SDS011;16089;59.952;10.818;2022-11-11T07:54:52;19.23;;;2.95;;
28988;SDS011;16089;59.952;10.818;2022-11-11T07:57:18;31.95;;;4.25;;
28988;SDS011;16089;59.952;10.818;2022-11-11T07:59:46;18.58;;;3.53;;
28988;SDS011;16089;59.952;10.818;2022-11-11T08:02:12;21.15;;;3.40;;
28988;SDS011;16089;59.952;10.818;2022-11-11T08:04:39;16.00;;;3.08;;
28988;SDS011;16089;59.952;10.818;2022-11-11T08:07:05;16.88;;;3.53;;
28988;SDS011;16089;59.952;10.818;2022-11-11T08:09:31;19.60;;;3.70;;
28988;SDS011;16089;59.952;10.818;2022-11-11T08:11:58;15.82;;;3.65;;
28988;SDS011;16089;59.952;10.818;2022-11-11T08:14:42;17.80;;;3.10;;
28988;SDS011;16089;59.952;10.818;2022-11-11T08:17:09;21.35;;;3.03;;
28988;SDS011;16089;59.952;10.818;2022-11-11T08:19:35;18.95;;;3.33;;
28988;SDS011;16089;59.952;10.818;2022-11-11T08:22:02;22.17;;;4.00;;
28988;SDS011;16089;59.952;10.818;2022-11-11T08:24:30;18.02;;;3.50;;
28988;SDS011;16089;59.952;10.818;2022-11-11T08:26:56;18.77;;;3.45;;
28988;SDS011;16089;59.952;10.818;2022-11-11T08:29:22;17.52;;;3.17;;
28988;SDS011;16089;59.952;10.818;2022-11-11T08:31:50;19.70;;;4.05;;
28988;SDS011;16089;59.952;10.818;2022-11-11T08:34:18;17.30;;;3.60;;
28988;SDS011;16089;59.952;10.818;2022-11-11T08:36:44;13.35;;;3.55;;
28988;SDS011;16089;59.952;10.818;2022-11-11T08:39:10;15.80;;;3.00;;
28988;SDS011;16089;59.952;10.818;2022-11-11T08:41:36;17.40;;;3.42;;
28988;SDS011;16089;59.952;10.818;2022-11-11T08:44:03;18.00;;;3.10;;
28988;SDS011;16089;59.952;10.818;2022-11-11T08:46:29;17.65;;;2.45;;
28988;SDS011;16089;59.952;10.818;2022-11-11T08:48:55;17.23;;;3.20;;
28988;SDS011;16089;59.952;10.818;2022-11-11T08:51:23;14.32;;;2.90;;
28988;SDS011;16089;59.952;10.818;2022-11-11T08:53:49;15.25;;;2.67;;
28988;SDS011;16089;59.952;10.818;2022-11-11T08:56:16;16.73;;;2.65;;
28988;SDS011;16089;59.952;10.818;2022-11-11T08:58:42;18.50;;;3.05;;
28988;SDS011;16089;59.952;10.818;2022-11-11T09:01:11;16.42;;;2.80;;
28988;SDS011;16089;59.952;10.818;2022-11-11T09:03:38;19.52;;;3.22;;
28988;SDS011;16089;59.952;10.818;2022-11-11T09:06:07;15.43;;;2.58;;
28988;SDS011;16089;59.952;10.818;2022-11-11T09:08:35;13.38;;;2.42;;
28988;SDS011;16089;59.952;10.818;2022-11-11T09:11:01;18.38;;;3.45;;
28988;SDS011;16089;59.952;10.818;2022-11-11T09:13:27;16.38;;;3.05;;
28988;SDS011;16089;59.952;10.818;2022-11-11T09:15:53;17.00;;;3.85;;
28988;SDS011;16089;59.952;10.818;2022-11-11T09:18:20;16.23;;;3.28;;
28988;SDS011;16089;59.952;10.818;2022-11-11T09:20:46;15.85;;;2.60;;
28988;SDS011;16089;59.952;10.818;2022-11-11T09:23:12;18.17;;;3.13;;
28988;SDS011;16089;59.952;10.818;2022-11-11T09:25:40;15.07;;;3.15;;
28988;SDS011;16089;59.952;10.818;2022-11-11T09:28:06;15.73;;;2.70;;
28988;SDS011;16089;59.952;10.818;2022-11-11T09:30:32;16.35;;;2.72;;
28988;SDS011;16089;59.952;10.818;2022-11-11T09:33:02;17.17;;;3.30;;
28988;SDS011;16089;59.952;10.818;2022-11-11T09:35:28;19.70;;;3.13;;
28988;SDS011;16089;59.952;10.818;2022-11-11T09:37:55;13.50;;;2.78;;
28988;SDS011;16089;59.952;10.818;2022-11-11T09:40:22;17.33;;;2.65;;
28988;SDS011;16089;59.952;10.818;2022-11-11T09:42:53;12.13;;;2.42;;
28988;SDS011;16089;59.952;10.818;2022-11-11T09:45:22;17.58;;;2.95;;
28988;SDS011;16089;59.952;10.818;2022-11-11T09:47:52;15.85;;;2.85;;
28988;SDS011;16089;59.952;10.818;2022-11-11T09:50:21;14.20;;;2.38;;
28988;SDS011;16089;59.952;10.818;2022-11-11T09:52:50;16.85;;;2.70;;
28988;SDS011;16089;59.952;10.818;2022-11-11T09:55:19;16.02;;;2.90;;
28988;SDS011;16089;59.952;10.818;2022-11-11T09:57:47;15.80;;;2.67;;
28988;SDS011;16089;59.952;10.818;2022-11-11T10:00:16;14.88;;;2.83;;
28988;SDS011;16089;59.952;10.818;2022-11-11T10:02:45;19.88;;;2.72;;
28988;SDS011;16089;59.952;10.818;2022-11-11T10:05:13;10.48;;;2.38;;
28988;SDS011;16089;59.952;10.818;2022-11-11T10:07:42;12.23;;;3.10;;
28988;SDS011;16089;59.952;10.818;2022-11-11T10:10:11;14.77;;;2.75;;
28988;SDS011;16089;59.952;10.818;2022-11-11T10:12:41;12.38;;;2.70;;
28988;SDS011;16089;59.952;10.818;2022-11-11T10:15:10;11.40;;;2.08;;
28988;SDS011;16089;59.952;10.818;2022-11-11T10:17:39;13.02;;;2.15;;
28988;SDS011;16089;59.952;10.818;2022-11-11T10:20:10;9.23;;;2.05;;
28988;SDS011;16089;59.952;10.818;2022-11-11T10:22:39;10.27;;;1.88;;
28988;SDS011;16089;59.952;10.818;2022-11-11T10:25:07;13.23;;;2.15;;
28988;SDS011;16089;59.952;10.818;2022-11-11T10:27:41;10.95;;;2.08;;
28988;SDS011;16089;59.952;10.818;2022-11-11T10:30:13;11.82;;;1.92;;
28988;SDS011;16089;59.952;10.818;2022-11-11T10:32:42;8.38;;;1.77;;
28988;SDS011;16089;59.952;10.818;2022-11-11T10:35:12;12.45;;;2.13;;
28988;SDS011;16089;59.952;10.818;2022-11-11T10:37:40;13.23;;;2.40;;
28988;SDS011;16089;59.952;10.818;2022-11-11T10:40:09;9.73;;;1.67;;
28988;SDS011;16089;59.952;10.818;2022-11-11T10:42:37;9.70;;;1.77;;
28988;SDS011;16089;59.952;10.818;2022-11-11T10:45:07;10.15;;;2.00;;
28988;SDS011;16089;59.952;10.818;2022-11-11T10:47:40;11.80;;;2.05;;
28988;SDS011;16089;59.952;10.818;2022-11-11T10:50:10;12.57;;;2.63;;
28988;SDS011;16089;59.952;10.818;2022-11-11T10:52:40;14.20;;;2.90;;
28988;SDS011;16089;59.952;10.818;2022-11-11T10:55:07;12.05;;;3.03;;
28988;SDS011;16089;59.952;10.818;2022-11-11T10:57:35;14.75;;;1.77;;
28988;SDS011;16089;59.952;10.818;2022-11-11T11:00:04;13.80;;;2.40;;
28988;SDS011;16089;59.952;10.818;2022-11-11T11:02:33;14.90;;;2.30;;
28988;SDS011;16089;59.952;10.818;2022-11-11T11:05:02;10.63;;;2.55;;
28988;SDS011;16089;59.952;10.818;2022-11-11T11:07:36;11.57;;;1.98;;
28988;SDS011;16089;59.952;10.818;2022-11-11T11:10:05;17.42;;;2.65;;
28988;SDS011;16089;59.952;10.818;2022-11-11T11:12:33;10.93;;;2.22;;
28988;SDS011;16089;59.952;10.818;2022-11-11T11:15:04;13.45;;;2.35;;
28988;SDS011;16089;59.952;10.818;2022-11-11T11:17:34;12.73;;;2.67;;
28988;SDS011;16089;59.952;10.818;2022-11-11T11:20:08;16.92;;;2.88;;
28988;SDS011;16089;59.952;10.818;2022-11-11T11:22:46;13.85;;;2.47;;
28988;SDS011;16089;59.952;10.818;2022-11-11T11:25:13;18.58;;;3.20;;
28988;SDS011;16089;59.952;10.818;2022-11-11T11:27:40;15.90;;;3.17;;
28988;SDS011;16089;59.952;10.818;2022-11-11T11:30:10;22.13;;;5.25;;
28988;SDS011;16089;59.952;10.818;2022-11-11T11:32:36;16.45;;;3.42;;
28988;SDS011;16089;59.952;10.818;2022-11-11T11:35:06;19.23;;;3.13;;
28988;SDS011;16089;59.952;10.818;2022-11-11T11:37:35;18.05;;;2.97;;
28988;SDS011;16089;59.952;10.818;2022-11-11T11:42:41;22.38;;;3.58;;
28988;SDS011;16089;59.952;10.818;2022-11-11T11:47:51;15.27;;;2.85;;
28988;SDS011;16089;59.952;10.818;2022-11-11T11:50:39;21.63;;;3.42;;
28988;SDS011;16089;59.952;10.818;2022-11-11T11:53:22;22.80;;;3.47;;
28988;SDS011;16089;59.952;10.818;2022-11-11T11:55:52;22.88;;;4.28;;
28988;SDS011;16089;59.952;10.818;2022-11-11T11:58:26;25.35;;;3.67;;
28988;SDS011;16089;59.952;10.818;2022-11-11T12:00:58;25.77;;;3.95;;
28988;SDS011;16089;59.952;10.818;2022-11-11T12:03:32;18.83;;;2.97;;
28988;SDS011;16089;59.952;10.818;2022-11-11T12:06:06;16.13;;;2.90;;
28988;SDS011;16089;59.952;10.818;2022-11-11T12:08:39;23.10;;;2.90;;
28988;SDS011;16089;59.952;10.818;2022-11-11T12:11:12;17.33;;;2.60;;
28988;SDS011;16089;59.952;10.818;2022-11-11T12:13:44;22.15;;;2.97;;
28988;SDS011;16089;59.952;10.818;2022-11-11T12:16:16;14.30;;;2.20;;
28988;SDS011;16089;59.952;10.818;2022-11-11T12:18:54;14.77;;;1.83;;
28988;SDS011;16089;59.952;10.818;2022-11-11T12:21:23;10.32;;;2.15;;
28988;SDS011;16089;59.952;10.818;2022-11-11T12:23:56;14.65;;;2.45;;
28988;SDS011;16089;59.952;10.818;2022-11-11T12:26:24;11.90;;;2.13;;
28988;SDS011;16089;59.952;10.818;2022-11-11T12:28:59;15.52;;;2.67;;
28988;SDS011;16089;59.952;10.818;2022-11-11T12:31:31;12.82;;;2.45;;
28988;SDS011;16089;59.952;10.818;2022-11-11T12:34:00;10.45;;;1.80;;
28988;SDS011;16089;59.952;10.818;2022-11-11T12:36:33;14.23;;;2.47;;
28988;SDS011;16089;59.952;10.818;2022-11-11T12:39:02;10.05;;;1.85;;
28988;SDS011;16089;59.952;10.818;2022-11-11T12:41:38;12.15;;;2.20;;
28988;SDS011;16089;59.952;10.818;2022-11-11T12:44:10;13.02;;;2.65;;
28988;SDS011;16089;59.952;10.818;2022-11-11T12:46:48;14.38;;;2.70;;
28988;SDS011;16089;59.952;10.818;2022-11-11T12:49:22;14.98;;;2.22;;
28988;SDS011;16089;59.952;10.818;2022-11-11T12:51:54;9.90;;;2.00;;
28988;SDS011;16089;59.952;10.818;2022-11-11T12:54:23;13.27;;;2.55;;
28988;SDS011;16089;59.952;10.818;2022-11-11T12:56:53;17.25;;;2.42;;
28988;SDS011;16089;59.952;10.818;2022-11-11T12:59:23;15.02;;;2.55;;
28988;SDS011;16089;59.952;10.818;2022-11-11T13:01:53;12.25;;;2.13;;
28988;SDS011;16089;59.952;10.818;2022-11-11T13:04:23;15.20;;;2.67;;
28988;SDS011;16089;59.952;10.818;2022-11-11T13:07:04;12.48;;;2.38;;
28988;SDS011;16089;59.952;10.818;2022-11-11T13:09:37;15.90;;;2.83;;
28988;SDS011;16089;59.952;10.818;2022-11-11T13:12:05;17.77;;;3.28;;
28988;SDS011;16089;59.952;10.818;2022-11-11T13:14:49;18.92;;;3.40;;
28988;SDS011;16089;59.952;10.818;2022-11-11T13:17:16;16.52;;;2.58;;
28988;SDS011;16089;59.952;10.818;2022-11-11T13:19:43;17.88;;;2.90;;
28988;SDS011;16089;59.952;10.818;2022-11-11T13:22:13;15.30;;;2.60;;
28988;SDS011;16089;59.952;10.818;2022-11-11T13:24:41;16.75;;;2.97;;
28988;SDS011;16089;59.952;10.818;2022-11-11T13:27:11;17.90;;;3.60;;
28988;SDS011;16089;59.952;10.818;2022-11-11T13:29:47;19.00;;;2.90;;
28988;SDS011;16089;59.952;10.818;2022-11-11T13:32:17;21.05;;;3.60;;
28988;SDS011;16089;59.952;10.818;2022-11-11T13:34:44;20.40;;;3.42;;
28988;SDS011;16089;59.952;10.818;2022-11-11T13:37:17;24.02;;;3.53;;
28988;SDS011;16089;59.952;10.818;2022-11-11T13:39:45;15.95;;;3.30;;
28988;SDS011;16089;59.952;10.818;2022-11-11T13:42:12;21.67;;;3.90;;
28988;SDS011;16089;59.952;10.818;2022-11-11T13:44:46;27.40;;;3.90;;
28988;SDS011;16089;59.952;10.818;2022-11-11T13:47:17;21.65;;;3.70;;
28988;SDS011;16089;59.952;10.818;2022-11-11T13:49:45;22.30;;;3.78;;
28988;SDS011;16089;59.952;10.818;2022-11-11T13:52:19;22.95;;;3.55;;
28988;SDS011;16089;59.952;10.818;2022-11-11T13:54:47;23.73;;;4.25;;
28988;SDS011;16089;59.952;10.818;2022-11-11T13:57:17;24.65;;;4.10;;
28988;SDS011;16089;59.952;10.818;2022-11-11T13:59:48;20.05;;;3.58;;
28988;SDS011;16089;59.952;10.818;2022-11-11T14:02:27;25.65;;;3.97;;
28988;SDS011;16089;59.952;10.818;2022-11-11T14:07:46;23.90;;;3.70;;
28988;SDS011;16089;59.952;10.818;2022-11-11T14:12:54;21.80;;;3.72;;
28988;SDS011;16089;59.952;10.818;2022-11-11T14:15:34;25.02;;;3.40;;
28988;SDS011;16089;59.952;10.818;2022-11-11T14:18:02;20.83;;;3.75;;
28988;SDS011;16089;59.952;10.818;2022-11-11T14:20:35;20.88;;;3.65;;
28988;SDS011;16089;59.952;10.818;2022-11-11T14:25:47;26.17;;;4.13;;
28988;SDS011;16089;59.952;10.818;2022-11-11T14:28:21;17.38;;;3.63;;
28988;SDS011;16089;59.952;10.818;2022-11-11T14:30:47;20.65;;;3.90;;
28988;SDS011;16089;59.952;10.818;2022-11-11T14:33:18;14.90;;;2.83;;
28988;SDS011;16089;59.952;10.818;2022-11-11T14:35:50;17.85;;;2.90;;
28988;SDS011;16089;59.952;10.818;2022-11-11T14:38:25;16.52;;;2.67;;
28988;SDS011;16089;59.952;10.818;2022-11-11T14:40:53;20.70;;;2.85;;
28988;SDS011;16089;59.952;10.818;2022-11-11T14:43:37;22.25;;;4.00;;
28988;SDS011;16089;59.952;10.818;2022-11-11T14:46:05;19.10;;;2.90;;
28988;SDS011;16089;59.952;10.818;2022-11-11T14:51:36;23.08;;;3.90;;